createdAt,value
2019-05-19T00:00:32.896Z,12.39
2019-05-19T00:03:04.290Z,12.44
2019-05-19T00:05:35.852Z,12.57
2019-05-19T00:08:06.870Z,12.62
2019-05-19T00:10:38.042Z,12.54
2019-05-19T00:13:09.161Z,12.32
2019-05-19T00:15:40.182Z,11.99
2019-05-19T00:18:11.253Z,11.49
2019-05-19T00:20:42.337Z,11.90
2019-05-19T00:23:13.360Z,12.03
2019-05-19T00:25:44.466Z,12.08
2019-05-19T00:28:15.605Z,12.11
2019-05-19T00:30:46.712Z,11.48
2019-05-19T00:33:17.919Z,11.87
2019-05-19T00:35:48.973Z,11.87
2019-05-19T00:38:20.031Z,12.05
2019-05-19T00:40:51.131Z,12.10
2019-05-19T00:43:22.240Z,11.68
2019-05-19T00:45:53.418Z,11.92
2019-05-19T00:48:24.568Z,12.14
2019-05-19T00:50:56.898Z,12.13
2019-05-19T00:53:28.094Z,12.11
2019-05-19T00:56:00.693Z,12.17
2019-05-19T00:58:34.522Z,12.06
2019-05-19T01:01:05.700Z,12.13
2019-05-19T01:03:36.747Z,12.08
2019-05-19T01:06:08.995Z,11.95
2019-05-19T01:08:40.033Z,11.81
2019-05-19T01:11:11.113Z,11.89
2019-05-19T01:13:42.238Z,12.04
2019-05-19T01:16:13.386Z,12.08
2019-05-19T01:18:45.452Z,11.55
2019-05-19T01:21:17.292Z,11.52
2019-05-19T01:23:48.356Z,11.78
2019-05-19T01:26:19.428Z,11.93
2019-05-19T01:28:50.540Z,11.92
2019-05-19T01:31:21.693Z,11.83
2019-05-19T01:33:52.701Z,11.86
2019-05-19T01:36:23.724Z,11.65
2019-05-19T01:38:54.861Z,11.85
2019-05-19T01:41:26.055Z,11.75
2019-05-19T01:43:57.138Z,11.74
2019-05-19T01:46:28.226Z,11.68
2019-05-19T01:48:59.330Z,11.51
2019-05-19T01:51:30.399Z,11.65
2019-05-19T01:54:01.538Z,11.61
2019-05-19T01:56:32.597Z,11.78
2019-05-19T01:59:03.678Z,11.32
2019-05-19T02:01:35.948Z,11.71
2019-05-19T02:04:07.192Z,11.36
2019-05-19T02:06:38.417Z,11.61
2019-05-19T02:09:09.651Z,11.68
2019-05-19T02:11:40.879Z,11.81
2019-05-19T02:14:11.975Z,11.77
2019-05-19T02:16:43.081Z,11.68
2019-05-19T02:19:14.259Z,11.85
2019-05-19T02:21:45.354Z,11.37
2019-05-19T02:24:16.463Z,11.29
2019-05-19T02:26:47.564Z,11.60
2019-05-19T02:29:18.737Z,11.60
2019-05-19T02:31:50.926Z,11.72
2019-05-19T02:34:21.975Z,11.75
2019-05-19T02:36:53.061Z,11.57
2019-05-19T02:39:24.310Z,11.71
2019-05-19T02:41:55.463Z,11.77
2019-05-19T02:44:28.127Z,11.81
2019-05-19T02:47:01.076Z,11.98
2019-05-19T02:49:34.032Z,11.92
2019-05-19T02:52:05.646Z,11.96
2019-05-19T02:54:37.539Z,12.17
2019-05-19T02:57:09.079Z,11.94
2019-05-19T02:59:41.455Z,12.06
2019-05-19T03:02:13.931Z,12.14
2019-05-19T03:04:45.100Z,11.95
2019-05-19T03:07:16.150Z,12.18
2019-05-19T03:09:47.269Z,12.18
2019-05-19T03:12:18.383Z,12.21
2019-05-19T03:14:49.550Z,11.88
2019-05-19T03:17:20.590Z,12.06
2019-05-19T03:19:52.105Z,12.17
2019-05-19T03:22:24.019Z,12.27
2019-05-19T03:24:55.101Z,12.51
2019-05-19T03:27:26.094Z,12.41
2019-05-19T03:29:58.872Z,12.33
2019-05-19T03:32:45.935Z,12.18
2019-05-19T03:35:17.078Z,12.27
2019-05-19T03:37:48.178Z,12.37
2019-05-19T03:40:22.245Z,12.29
2019-05-19T03:42:53.608Z,12.33
2019-05-19T03:45:24.702Z,12.45
2019-05-19T03:47:55.991Z,12.50
2019-05-19T03:50:27.070Z,12.20
2019-05-19T03:52:58.110Z,12.57
2019-05-19T03:55:29.158Z,12.43
2019-05-19T03:58:00.254Z,12.58
2019-05-19T04:00:31.533Z,12.31
2019-05-19T04:03:02.674Z,12.47
2019-05-19T04:05:33.841Z,12.42
2019-05-19T04:08:04.965Z,12.34
2019-05-19T04:10:36.409Z,12.28
2019-05-19T04:13:07.442Z,12.20
2019-05-19T04:15:38.643Z,12.53
2019-05-19T04:18:09.659Z,12.46
2019-05-19T04:20:40.847Z,12.42
2019-05-19T04:23:11.895Z,12.48
2019-05-19T04:25:43.074Z,12.48
2019-05-19T04:28:14.191Z,12.76
2019-05-19T04:30:45.360Z,12.68
2019-05-19T04:33:16.630Z,12.88
2019-05-19T04:35:47.669Z,12.81
2019-05-19T04:38:18.690Z,12.60
2019-05-19T04:40:49.775Z,12.69
2019-05-19T04:43:20.799Z,12.76
2019-05-19T04:45:51.829Z,13.59
2019-05-19T04:48:23.009Z,14.15
2019-05-19T04:50:54.071Z,14.29
2019-05-19T04:53:26.306Z,15.07
2019-05-19T04:55:57.457Z,14.85
2019-05-19T04:58:28.455Z,15.80
2019-05-19T05:00:59.496Z,15.54
2019-05-19T05:03:31.575Z,16.96
2019-05-19T05:06:02.666Z,17.25
2019-05-19T05:08:33.758Z,17.03
2019-05-19T05:11:04.846Z,17.02
2019-05-19T05:13:35.843Z,16.62
2019-05-19T05:16:06.874Z,16.56
2019-05-19T05:18:37.932Z,15.82
2019-05-19T05:21:08.980Z,15.59
2019-05-19T05:23:40.007Z,15.70
2019-05-19T05:26:11.137Z,15.09
2019-05-19T05:28:42.138Z,15.27
2019-05-19T05:31:15.518Z,14.94
2019-05-19T05:33:47.611Z,14.68
2019-05-19T05:36:18.714Z,15.11
2019-05-19T05:38:49.837Z,15.28
2019-05-19T05:41:21.107Z,15.25
2019-05-19T05:43:52.198Z,14.79
2019-05-19T05:46:23.437Z,15.53
2019-05-19T05:48:54.420Z,15.58
2019-05-19T05:51:25.838Z,15.30
2019-05-19T05:53:56.891Z,15.47
2019-05-19T05:56:27.930Z,14.85
2019-05-19T05:58:58.934Z,15.23
2019-05-19T06:01:30.055Z,15.42
2019-05-19T06:04:01.050Z,15.39
2019-05-19T06:06:32.300Z,15.17
2019-05-19T06:09:05.796Z,15.33
2019-05-19T06:11:37.187Z,15.17
2019-05-19T06:14:08.353Z,15.21
2019-05-19T06:16:39.410Z,15.51
2019-05-19T06:19:10.491Z,15.61
2019-05-19T06:21:41.625Z,15.79
2019-05-19T06:24:12.801Z,16.14
2019-05-19T06:26:43.862Z,16.32
2019-05-19T06:29:14.891Z,16.94
2019-05-19T06:31:46.077Z,16.42
2019-05-19T06:34:17.225Z,16.27
2019-05-19T06:36:48.396Z,16.40
2019-05-19T06:39:19.438Z,16.56
2019-05-19T06:41:50.476Z,16.75
2019-05-19T06:44:21.523Z,17.18
2019-05-19T06:46:52.551Z,17.66
2019-05-19T06:49:23.670Z,18.45
2019-05-19T06:51:54.675Z,18.94
2019-05-19T06:54:25.673Z,19.13
2019-05-19T06:56:56.764Z,19.58
2019-05-19T06:59:27.805Z,20.36
2019-05-19T07:01:58.888Z,20.61
2019-05-19T07:04:29.966Z,21.57
2019-05-19T07:07:01.101Z,22.34
2019-05-19T07:09:32.101Z,22.98
2019-05-19T07:12:03.114Z,23.20
2019-05-19T07:14:34.207Z,23.25
2019-05-19T07:17:05.441Z,23.32
2019-05-19T07:19:36.641Z,23.89
2019-05-19T07:22:07.913Z,23.93
2019-05-19T07:24:38.951Z,24.64
2019-05-19T07:27:09.993Z,24.43
2019-05-19T07:29:41.041Z,25.38
2019-05-19T07:32:12.140Z,25.09
2019-05-19T07:34:43.338Z,25.50
2019-05-19T07:37:14.467Z,25.71
2019-05-19T07:39:45.483Z,25.50
2019-05-19T07:42:16.604Z,26.29
2019-05-19T07:44:47.630Z,26.24
2019-05-19T07:47:18.735Z,26.79
2019-05-19T07:49:49.753Z,25.88
2019-05-19T07:52:20.881Z,26.00
2019-05-19T07:54:51.948Z,25.15
2019-05-19T07:57:23.010Z,24.86
2019-05-19T07:59:54.215Z,23.87
2019-05-19T08:02:25.237Z,24.53
2019-05-19T08:04:56.248Z,24.19
2019-05-19T08:07:27.372Z,22.78
2019-05-19T08:09:58.493Z,23.59
2019-05-19T08:12:29.552Z,24.99
2019-05-19T08:15:00.590Z,23.48
2019-05-19T08:17:31.716Z,23.18
2019-05-19T08:20:02.712Z,24.46
2019-05-19T08:22:33.741Z,23.55
2019-05-19T08:25:05.294Z,24.43
2019-05-19T08:27:36.314Z,24.32
2019-05-19T08:30:08.793Z,23.93
2019-05-19T08:32:39.988Z,23.62
2019-05-19T08:35:11.122Z,22.71
2019-05-19T08:37:43.338Z,22.76
2019-05-19T08:40:14.618Z,22.20
2019-05-19T08:42:45.673Z,20.87
2019-05-19T08:45:17.286Z,20.47
2019-05-19T08:47:48.356Z,21.49
2019-05-19T08:50:19.505Z,21.94
2019-05-19T08:52:50.547Z,21.72
2019-05-19T08:55:21.691Z,21.29
2019-05-19T08:57:52.750Z,21.04
2019-05-19T09:00:24.038Z,20.66
2019-05-19T09:02:55.094Z,21.24
2019-05-19T09:05:26.251Z,21.21
2019-05-19T09:07:58.335Z,20.45
2019-05-19T09:10:29.403Z,20.99
2019-05-19T09:13:00.515Z,21.25
2019-05-19T09:15:31.758Z,20.40
2019-05-19T09:18:02.850Z,20.33
2019-05-19T09:20:33.853Z,20.78
2019-05-19T09:23:05.041Z,21.13
2019-05-19T09:25:36.164Z,21.50
2019-05-19T09:28:07.186Z,21.37
2019-05-19T09:30:38.291Z,21.45
2019-05-19T09:33:09.413Z,20.88
2019-05-19T09:35:40.397Z,20.86
2019-05-19T09:38:11.432Z,20.93
2019-05-19T09:40:42.492Z,21.29
2019-05-19T09:43:14.166Z,20.90
2019-05-19T09:45:45.445Z,20.36
2019-05-19T09:48:16.540Z,20.77
2019-05-19T09:50:47.745Z,20.91
2019-05-19T09:53:20.049Z,20.85
2019-05-19T09:55:51.102Z,21.34
2019-05-19T09:58:22.209Z,21.35
2019-05-19T10:00:53.433Z,21.12
2019-05-19T10:03:24.727Z,21.22
2019-05-19T10:05:56.786Z,21.46
2019-05-19T10:08:32.875Z,22.05
2019-05-19T10:11:59.526Z,22.35
2019-05-19T10:14:30.605Z,21.76
2019-05-19T10:17:48.682Z,21.97
2019-05-19T10:19:40.085Z,21.58
2019-05-19T10:22:11.364Z,22.21
2019-05-19T10:24:59.186Z,21.68
2019-05-19T10:27:15.486Z,22.03
2019-05-19T10:29:46.648Z,21.30
2019-05-19T10:32:17.738Z,21.11
2019-05-19T10:34:48.943Z,20.90
2019-05-19T10:37:20.070Z,21.76
2019-05-19T10:39:51.131Z,21.27
2019-05-19T10:42:22.272Z,21.52
2019-05-19T10:44:53.377Z,21.02
2019-05-19T10:47:24.457Z,21.14
2019-05-19T10:49:55.485Z,21.40
2019-05-19T10:52:26.497Z,21.33
2019-05-19T10:54:57.592Z,21.30
2019-05-19T10:57:28.623Z,21.49
2019-05-19T10:59:59.719Z,21.56
2019-05-19T11:02:30.779Z,21.18
2019-05-19T11:05:01.884Z,21.57
2019-05-19T11:07:34.022Z,21.40
2019-05-19T11:10:05.674Z,21.33
2019-05-19T11:12:36.796Z,21.20
2019-05-19T11:15:08.648Z,21.57
2019-05-19T11:18:32.616Z,21.34
2019-05-19T11:21:03.718Z,21.40
2019-05-19T11:23:34.762Z,21.72
2019-05-19T11:26:06.179Z,21.56
2019-05-19T11:28:37.287Z,21.39
2019-05-19T11:31:08.427Z,21.17
2019-05-19T11:33:39.588Z,21.27
2019-05-19T11:36:10.879Z,21.91
2019-05-19T11:38:43.008Z,22.34
2019-05-19T11:41:14.088Z,22.66
2019-05-19T11:43:45.164Z,22.24
2019-05-19T11:46:16.171Z,22.30
2019-05-19T11:48:47.331Z,22.51
2019-05-19T11:51:18.490Z,21.71
2019-05-19T11:53:49.511Z,21.04
2019-05-19T11:56:20.507Z,21.87
2019-05-19T11:58:51.505Z,21.71
2019-05-19T12:01:22.553Z,21.71
2019-05-19T12:03:55.501Z,21.92
2019-05-19T12:06:38.805Z,21.86
2019-05-19T12:08:59.498Z,22.10
2019-05-19T12:11:30.588Z,22.15
2019-05-19T12:14:01.637Z,22.18
2019-05-19T12:16:32.911Z,22.27
2019-05-19T12:19:04.156Z,21.79
2019-05-19T12:21:35.162Z,21.91
2019-05-19T12:24:06.530Z,21.79
2019-05-19T12:26:37.720Z,22.22
2019-05-19T12:29:08.933Z,21.92
2019-05-19T12:31:40.100Z,22.49
2019-05-19T12:34:11.169Z,22.15
2019-05-19T12:36:42.262Z,22.45
2019-05-19T12:39:13.308Z,22.11
2019-05-19T12:41:44.442Z,21.94
2019-05-19T12:44:16.519Z,21.77
2019-05-19T12:46:47.554Z,21.65
2019-05-19T12:49:18.798Z,21.55
2019-05-19T12:51:50.050Z,21.67
2019-05-19T12:54:21.054Z,21.40
2019-05-19T12:56:52.159Z,21.20
2019-05-19T12:59:23.275Z,21.75
2019-05-19T13:01:54.609Z,22.03
2019-05-19T13:04:25.666Z,21.57
2019-05-19T13:06:56.856Z,21.75
2019-05-19T13:09:27.960Z,21.16
2019-05-19T13:11:58.991Z,21.13
2019-05-19T13:14:30.011Z,20.81
2019-05-19T13:17:01.061Z,20.78
2019-05-19T13:19:32.150Z,20.68
2019-05-19T13:22:03.172Z,20.50
2019-05-19T13:24:34.245Z,20.45
2019-05-19T13:27:05.508Z,20.82
2019-05-19T13:29:36.653Z,21.03
2019-05-19T13:32:42.968Z,21.24
2019-05-19T13:35:14.575Z,21.20
2019-05-19T13:37:45.676Z,21.37
2019-05-19T13:40:16.969Z,21.46
2019-05-19T13:42:48.087Z,21.53
2019-05-19T13:45:19.336Z,21.75
2019-05-19T13:47:50.681Z,21.55
2019-05-19T13:50:21.781Z,21.37
2019-05-19T13:52:52.911Z,21.47
2019-05-19T13:55:23.889Z,21.15
2019-05-19T13:57:54.920Z,21.10
2019-05-19T14:00:25.950Z,21.25
2019-05-19T14:02:57.047Z,21.18
2019-05-19T14:05:28.130Z,20.95
2019-05-19T14:07:59.151Z,21.31
2019-05-19T14:10:30.177Z,21.20
2019-05-19T14:13:01.270Z,20.85
2019-05-19T14:15:32.334Z,21.16
2019-05-19T14:18:03.531Z,20.87
2019-05-19T14:20:34.637Z,21.03
2019-05-19T14:23:05.751Z,20.85
2019-05-19T14:25:36.886Z,20.58
2019-05-19T14:28:07.968Z,20.67
2019-05-19T14:30:38.976Z,20.51
2019-05-19T14:33:10.012Z,20.56
2019-05-19T14:35:41.029Z,20.73
2019-05-19T14:38:12.099Z,20.84
2019-05-19T14:40:43.856Z,20.56
2019-05-19T14:43:15.326Z,20.80
2019-05-19T14:45:46.344Z,20.59
2019-05-19T14:48:17.350Z,20.77
2019-05-19T14:50:48.426Z,20.79
2019-05-19T14:53:19.521Z,20.87
2019-05-19T14:55:50.665Z,20.97
2019-05-19T14:58:21.680Z,20.72
2019-05-19T15:00:52.758Z,21.12
2019-05-19T15:03:23.844Z,21.35
2019-05-19T15:05:54.921Z,21.20
2019-05-19T15:08:26.228Z,21.40
2019-05-19T15:10:57.238Z,21.17
2019-05-19T15:13:28.284Z,21.06
2019-05-19T15:16:00.658Z,21.14
2019-05-19T15:18:32.664Z,21.04
2019-05-19T15:21:03.737Z,20.92
2019-05-19T15:23:34.781Z,21.27
2019-05-19T15:26:05.962Z,21.09
2019-05-19T15:28:37.105Z,21.49
2019-05-19T15:31:09.182Z,21.46
2019-05-19T15:33:41.367Z,21.05
2019-05-19T15:36:12.460Z,20.88
2019-05-19T15:38:43.599Z,20.66
2019-05-19T15:41:14.671Z,20.14
2019-05-19T15:43:45.888Z,20.21
2019-05-19T15:46:18.209Z,20.00
2019-05-19T15:48:49.630Z,20.37
2019-05-19T15:51:28.662Z,20.38
2019-05-19T15:53:53.415Z,20.65
2019-05-19T15:56:24.511Z,20.68
2019-05-19T15:58:55.557Z,20.75
2019-05-19T16:01:26.653Z,20.79
2019-05-19T16:03:57.702Z,20.88
2019-05-19T16:06:28.760Z,20.80
2019-05-19T16:09:00.025Z,20.79
2019-05-19T16:11:31.162Z,20.57
2019-05-19T16:14:02.220Z,20.85
2019-05-19T16:16:33.327Z,21.03
2019-05-19T16:19:04.528Z,21.00
2019-05-19T16:21:35.645Z,21.15
2019-05-19T16:24:06.814Z,21.03
2019-05-19T16:26:37.831Z,21.04
2019-05-19T16:29:08.915Z,20.96
2019-05-19T16:31:39.927Z,21.10
2019-05-19T16:34:11.129Z,21.23
2019-05-19T16:36:42.147Z,21.19
2019-05-19T16:39:13.269Z,21.18
2019-05-19T16:41:44.304Z,20.90
2019-05-19T16:44:15.487Z,21.15
2019-05-19T16:46:47.558Z,21.05
2019-05-19T16:49:18.599Z,20.98
2019-05-19T16:51:49.884Z,21.03
2019-05-19T16:54:25.734Z,20.66
2019-05-19T16:56:56.836Z,20.90
2019-05-19T16:59:27.856Z,21.02
2019-05-19T17:01:58.856Z,20.91
2019-05-19T17:04:29.887Z,20.87
2019-05-19T17:07:03.065Z,20.95
2019-05-19T17:09:33.969Z,21.02
2019-05-19T17:12:06.938Z,20.96
2019-05-19T17:14:38.083Z,20.99
2019-05-19T17:17:09.084Z,21.00
2019-05-19T17:19:40.140Z,20.87
2019-05-19T17:22:11.172Z,20.70
2019-05-19T17:24:42.532Z,20.61
2019-05-19T17:27:13.687Z,20.49
2019-05-19T17:33:12.452Z,20.45
2019-05-19T17:39:14.279Z,20.05
2019-05-19T17:41:45.308Z,19.60
2019-05-19T17:44:16.363Z,19.59
2019-05-19T17:46:47.404Z,19.68
2019-05-19T17:49:18.478Z,19.48
2019-05-19T17:51:49.720Z,19.56
2019-05-19T17:54:20.857Z,19.49
2019-05-19T17:56:54.111Z,19.44
2019-05-19T17:59:25.961Z,19.06
2019-05-19T18:01:57.018Z,18.81
2019-05-19T18:04:28.048Z,19.11
2019-05-19T18:06:59.149Z,18.75
2019-05-19T18:09:31.335Z,18.91
2019-05-19T18:12:02.560Z,18.72
2019-05-19T18:14:33.743Z,18.51
2019-05-19T18:17:04.967Z,18.79
2019-05-19T18:19:36.341Z,18.66
2019-05-19T18:22:07.826Z,18.91
2019-05-19T18:24:54.851Z,18.85
2019-05-19T18:27:25.983Z,18.75
2019-05-19T18:29:57.103Z,18.52
2019-05-19T18:32:28.292Z,18.33
2019-05-19T18:34:59.324Z,18.01
2019-05-19T18:37:30.438Z,18.18
2019-05-19T18:40:01.466Z,18.08
2019-05-19T18:42:32.595Z,17.77
2019-05-19T18:45:03.805Z,18.12
2019-05-19T18:47:35.067Z,17.72
2019-05-19T18:50:06.796Z,17.86
2019-05-19T18:52:37.978Z,17.81
2019-05-19T18:55:09.445Z,18.04
2019-05-19T18:57:40.641Z,17.57
2019-05-19T19:00:16.512Z,17.61
2019-05-19T19:02:48.110Z,17.55
2019-05-19T19:05:19.369Z,17.18
2019-05-19T19:07:52.710Z,17.01
2019-05-19T19:10:23.914Z,17.38
2019-05-19T19:12:54.972Z,17.27
2019-05-19T19:15:26.061Z,17.65
2019-05-19T19:17:57.465Z,17.16
2019-05-19T19:20:28.610Z,17.56
2019-05-19T19:22:59.739Z,17.79
2019-05-19T19:25:30.810Z,17.85
2019-05-19T19:28:01.889Z,17.78
2019-05-19T19:30:33.193Z,17.78
2019-05-19T19:33:04.474Z,17.86
2019-05-19T19:35:39.080Z,17.97
2019-05-19T19:38:08.720Z,17.83
2019-05-19T19:40:39.910Z,17.61
2019-05-19T19:43:12.195Z,17.63
2019-05-19T19:45:43.356Z,17.60
2019-05-19T19:48:15.577Z,17.55
2019-05-19T19:50:46.751Z,17.45
2019-05-19T19:53:19.181Z,17.03
2019-05-19T19:55:50.395Z,16.93
2019-05-19T19:58:21.548Z,16.70
2019-05-19T20:00:52.635Z,16.09
2019-05-19T20:03:23.869Z,16.30
2019-05-19T20:05:55.186Z,16.39
2019-05-19T20:08:26.315Z,16.52
2019-05-19T20:10:57.474Z,16.42
2019-05-19T20:13:28.553Z,16.27
2019-05-19T20:15:59.584Z,16.18
2019-05-19T20:18:30.770Z,16.01
2019-05-19T20:21:01.874Z,15.98
2019-05-19T20:23:33.084Z,15.89
2019-05-19T20:26:04.349Z,15.87
2019-05-19T20:28:35.426Z,15.53
2019-05-19T20:31:06.714Z,15.46
2019-05-19T20:33:37.880Z,15.69
2019-05-19T20:36:09.019Z,15.19
2019-05-19T20:38:40.312Z,15.55
2019-05-19T20:41:11.414Z,15.25
2019-05-19T20:43:42.688Z,15.20
2019-05-19T20:46:13.703Z,15.34
2019-05-19T20:48:45.012Z,15.34
2019-05-19T20:51:16.209Z,15.25
2019-05-19T20:53:47.375Z,15.04
2019-05-19T20:56:18.506Z,15.14
2019-05-19T20:58:49.791Z,15.23
2019-05-19T21:01:20.843Z,15.30
2019-05-19T21:03:52.073Z,15.43
2019-05-19T21:06:23.158Z,15.58
2019-05-19T21:08:54.424Z,15.79
2019-05-19T21:11:25.579Z,15.64
2019-05-19T21:13:56.682Z,15.64
2019-05-19T21:16:27.849Z,15.40
2019-05-19T21:19:12.579Z,15.05
2019-05-19T21:21:43.661Z,15.34
2019-05-19T21:24:14.840Z,14.88
2019-05-19T21:26:46.076Z,14.71
2019-05-19T21:29:17.250Z,14.65
2019-05-19T21:31:48.374Z,14.79
2019-05-19T21:34:19.573Z,14.98
2019-05-19T21:36:50.875Z,15.27
2019-05-19T21:39:21.918Z,15.45
2019-05-19T21:41:53.119Z,15.44
2019-05-19T21:44:24.340Z,15.50
2019-05-19T21:46:55.528Z,15.43
2019-05-19T21:49:26.887Z,15.26
2019-05-19T21:51:58.092Z,15.15
2019-05-19T21:54:29.440Z,15.29
2019-05-19T21:57:00.504Z,15.28
2019-05-19T21:59:32.647Z,15.38
2019-05-19T22:02:04.657Z,15.02
2019-05-19T22:04:36.068Z,15.23
2019-05-19T22:07:14.556Z,15.43
2019-05-19T22:09:45.803Z,15.17
2019-05-19T22:12:16.922Z,15.27
2019-05-19T22:14:48.075Z,15.04
2019-05-19T22:17:19.300Z,15.12
2019-05-19T22:19:50.436Z,15.27
2019-05-19T22:22:21.601Z,14.98
2019-05-19T22:24:52.731Z,14.65
2019-05-19T22:27:23.833Z,14.59
2019-05-19T22:29:55.017Z,14.60
2019-05-19T22:32:27.451Z,14.76
2019-05-19T22:34:58.572Z,14.72
2019-05-19T22:37:29.636Z,14.77
2019-05-19T22:40:00.745Z,14.57
2019-05-19T22:42:31.972Z,14.56
2019-05-19T22:45:03.080Z,14.79
2019-05-19T22:47:34.382Z,14.75
2019-05-19T22:50:06.679Z,14.07
2019-05-19T22:52:38.830Z,14.50
2019-05-19T22:55:10.577Z,14.46
2019-05-19T22:57:41.626Z,14.62
2019-05-19T23:00:16.049Z,14.66
2019-05-19T23:02:48.638Z,14.29
2019-05-19T23:05:19.985Z,14.64
2019-05-19T23:07:51.171Z,14.75
2019-05-19T23:10:22.654Z,14.79
2019-05-19T23:12:53.821Z,14.84
2019-05-19T23:15:25.259Z,14.66
2019-05-19T23:17:56.461Z,14.61
2019-05-19T23:20:27.622Z,14.52
2019-05-19T23:22:59.204Z,14.65
2019-05-19T23:25:30.387Z,14.82
2019-05-19T23:28:01.535Z,14.81
2019-05-19T23:30:32.720Z,14.87
2019-05-19T23:33:03.840Z,14.89
2019-05-19T23:35:34.951Z,14.91
2019-05-19T23:38:06.183Z,14.79
2019-05-19T23:40:37.412Z,14.79
2019-05-19T23:43:09.568Z,14.72
2019-05-19T23:45:40.696Z,14.73
2019-05-19T23:48:11.761Z,14.13
2019-05-19T23:50:42.972Z,14.28
2019-05-19T23:53:14.030Z,14.31
2019-05-19T23:55:45.308Z,14.48
2019-05-19T23:58:17.303Z,14.38
